createdAt,value
2024-05-09T00:00:59.188Z,529.00
2024-05-09T00:01:59.260Z,528.00
2024-05-09T00:02:59.325Z,528.00
2024-05-09T00:03:59.410Z,526.00
2024-05-09T00:04:59.577Z,525.00
2024-05-09T00:05:59.609Z,526.00
2024-05-09T00:06:59.562Z,528.00
2024-05-09T00:07:59.662Z,528.00
2024-05-09T00:08:59.794Z,528.00
2024-05-09T00:09:59.783Z,526.00
2024-05-09T00:10:59.882Z,524.00
2024-05-09T00:12:00.241Z,527.00
2024-05-09T00:12:59.981Z,526.00
2024-05-09T00:14:00.123Z,525.00
2024-05-09T00:15:00.160Z,525.00
2024-05-09T00:16:00.978Z,525.00
2024-05-09T00:17:00.227Z,527.00
2024-05-09T00:18:00.602Z,528.00
2024-05-09T00:19:00.387Z,529.00
2024-05-09T00:20:00.329Z,529.00
2024-05-09T00:21:00.426Z,528.00
2024-05-09T00:22:00.265Z,528.00
2024-05-09T00:23:00.266Z,529.00
2024-05-09T00:24:00.257Z,528.00
2024-05-09T00:25:00.263Z,527.00
2024-05-09T00:26:00.407Z,529.00
2024-05-09T00:27:00.281Z,530.00
2024-05-09T00:28:00.289Z,530.00
2024-05-09T00:29:00.328Z,530.00
2024-05-09T00:30:00.287Z,530.00
2024-05-09T00:31:00.275Z,530.00
2024-05-09T00:32:00.453Z,530.00
2024-05-09T00:33:00.664Z,531.00
2024-05-09T00:34:00.581Z,530.00
2024-05-09T00:35:00.416Z,529.00
2024-05-09T00:36:00.354Z,528.00
2024-05-09T00:37:00.326Z,530.00
2024-05-09T00:38:00.466Z,530.00
2024-05-09T00:39:00.339Z,530.00
2024-05-09T00:40:00.387Z,532.00
2024-05-09T00:41:00.393Z,530.00
2024-05-09T00:42:00.342Z,528.00
2024-05-09T00:43:00.380Z,531.00
2024-05-09T00:44:00.443Z,532.00
2024-05-09T00:45:00.395Z,533.00
2024-05-09T00:46:00.373Z,534.00
2024-05-09T00:47:00.430Z,533.00
2024-05-09T00:48:00.863Z,532.00
2024-05-09T00:49:00.534Z,531.00
2024-05-09T00:50:00.476Z,531.00
2024-05-09T00:51:00.596Z,529.00
2024-05-09T00:52:00.467Z,528.00
2024-05-09T00:53:00.507Z,531.00
2024-05-09T00:54:00.515Z,530.00
2024-05-09T00:55:00.517Z,529.00
2024-05-09T00:56:00.636Z,528.00
2024-05-09T00:57:00.546Z,528.00
2024-05-09T00:58:00.588Z,527.00
2024-05-09T00:59:00.703Z,527.00
2024-05-09T01:00:00.677Z,526.00
2024-05-09T01:01:00.731Z,527.00
2024-05-09T01:02:00.675Z,526.00
2024-05-09T01:03:00.934Z,527.00
2024-05-09T01:04:00.758Z,525.00
2024-05-09T01:05:00.828Z,527.00
2024-05-09T01:06:00.754Z,525.00
2024-05-09T01:07:00.723Z,525.00
2024-05-09T01:08:00.769Z,524.00
2024-05-09T01:09:00.739Z,524.00
2024-05-09T01:10:00.773Z,526.00
2024-05-09T01:11:00.903Z,527.00
2024-05-09T01:12:00.871Z,526.00
2024-05-09T01:13:00.740Z,528.00
2024-05-09T01:14:00.801Z,527.00
2024-05-09T01:15:00.774Z,527.00
2024-05-09T01:16:00.812Z,530.00
2024-05-09T01:17:00.869Z,529.00
2024-05-09T01:18:01.035Z,529.00
2024-05-09T01:19:00.980Z,527.00
2024-05-09T01:20:00.835Z,528.00
2024-05-09T01:21:00.822Z,529.00
2024-05-09T01:22:00.803Z,528.00
2024-05-09T01:23:00.874Z,530.00
2024-05-09T01:24:00.818Z,530.00
2024-05-09T01:25:00.876Z,531.00
2024-05-09T01:26:00.979Z,531.00
2024-05-09T01:27:00.906Z,530.00
2024-05-09T01:28:00.939Z,530.00
2024-05-09T01:29:00.976Z,529.00
2024-05-09T01:30:00.915Z,529.00
2024-05-09T01:31:00.936Z,531.00
2024-05-09T01:32:01.057Z,531.00
2024-05-09T01:33:01.358Z,531.00
2024-05-09T01:34:01.000Z,529.00
2024-05-09T01:35:01.018Z,529.00
2024-05-09T01:36:01.000Z,528.00
2024-05-09T01:37:00.982Z,524.00
2024-05-09T01:38:01.122Z,526.00
2024-05-09T01:39:00.956Z,525.00
2024-05-09T01:40:00.960Z,526.00
2024-05-09T01:41:01.046Z,528.00
2024-05-09T01:42:00.989Z,527.00
2024-05-09T01:43:00.973Z,527.00
2024-05-09T01:44:01.035Z,529.00
2024-05-09T01:45:01.024Z,528.00
2024-05-09T01:46:00.992Z,528.00
2024-05-09T01:47:01.072Z,528.00
2024-05-09T01:48:01.769Z,529.00
2024-05-09T01:49:01.125Z,529.00
2024-05-09T01:50:01.153Z,532.00
2024-05-09T01:51:01.058Z,530.00
2024-05-09T01:52:01.010Z,529.00
2024-05-09T01:53:01.180Z,530.00
2024-05-09T01:54:01.090Z,529.00
2024-05-09T01:55:04.635Z,530.00
2024-05-09T01:56:02.050Z,529.00
2024-05-09T01:57:01.071Z,529.00
2024-05-09T01:58:01.059Z,531.00
2024-05-09T01:59:01.108Z,532.00
2024-05-09T02:00:01.068Z,531.00
2024-05-09T02:01:01.127Z,531.00
2024-05-09T02:02:01.376Z,531.00
2024-05-09T02:03:01.302Z,532.00
2024-05-09T02:04:01.201Z,530.00
2024-05-09T02:05:01.203Z,530.00
2024-05-09T02:06:01.094Z,529.00
2024-05-09T02:07:01.065Z,528.00
2024-05-09T02:08:01.072Z,529.00
2024-05-09T02:09:01.035Z,528.00
2024-05-09T02:10:01.060Z,529.00
2024-05-09T02:11:01.175Z,528.00
2024-05-09T02:12:01.319Z,528.00
2024-05-09T02:13:01.146Z,527.00
2024-05-09T02:14:01.106Z,527.00
2024-05-09T02:15:01.192Z,527.00
2024-05-09T02:16:01.061Z,525.00
2024-05-09T02:17:01.096Z,525.00
2024-05-09T02:18:01.251Z,525.00
2024-05-09T02:19:01.239Z,524.00
2024-05-09T02:20:01.183Z,523.00
2024-05-09T02:21:01.195Z,524.00
2024-05-09T02:22:01.067Z,524.00
2024-05-09T02:23:01.210Z,523.00
2024-05-09T02:24:01.079Z,523.00
2024-05-09T02:25:01.041Z,526.00
2024-05-09T02:26:01.081Z,526.00
2024-05-09T02:27:01.110Z,523.00
2024-05-09T02:28:01.072Z,523.00
2024-05-09T02:29:01.091Z,523.00
2024-05-09T02:30:01.043Z,522.00
2024-05-09T02:31:01.070Z,522.00
2024-05-09T02:32:01.280Z,521.00
2024-05-09T02:33:01.402Z,523.00
2024-05-09T02:34:01.506Z,523.00
2024-05-09T02:35:01.151Z,523.00
2024-05-09T02:36:01.064Z,523.00
2024-05-09T02:37:01.069Z,520.00
2024-05-09T02:38:01.230Z,519.00
2024-05-09T02:39:01.032Z,518.00
2024-05-09T02:40:01.130Z,517.00
2024-05-09T02:41:01.087Z,517.00
2024-05-09T02:42:01.053Z,519.00
2024-05-09T02:43:01.066Z,519.00
2024-05-09T02:44:01.109Z,520.00
2024-05-09T02:45:01.114Z,520.00
2024-05-09T02:46:01.104Z,523.00
2024-05-09T02:47:01.156Z,523.00
2024-05-09T02:48:02.061Z,522.00
2024-05-09T02:49:01.338Z,524.00
2024-05-09T02:50:01.132Z,522.00
2024-05-09T02:51:01.116Z,522.00
2024-05-09T02:52:01.136Z,520.00
2024-05-09T02:53:01.283Z,521.00
2024-05-09T02:54:01.076Z,523.00
2024-05-09T02:55:01.093Z,524.00
2024-05-09T02:56:01.135Z,526.00
2024-05-09T02:57:01.089Z,524.00
2024-05-09T02:58:01.116Z,524.00
2024-05-09T02:59:01.116Z,523.00
2024-05-09T03:00:01.117Z,523.00
2024-05-09T03:01:01.194Z,524.00
2024-05-09T03:02:01.171Z,525.00
2024-05-09T03:03:01.312Z,525.00
2024-05-09T03:04:01.248Z,526.00
2024-05-09T03:05:01.224Z,527.00
2024-05-09T03:06:01.213Z,528.00
2024-05-09T03:07:01.192Z,528.00
2024-05-09T03:08:01.292Z,529.00
2024-05-09T03:09:01.222Z,529.00
2024-05-09T03:10:01.220Z,530.00
2024-05-09T03:11:01.343Z,525.00
2024-05-09T03:12:01.435Z,525.00
2024-05-09T03:13:01.301Z,525.00
2024-05-09T03:14:01.393Z,523.00
2024-05-09T03:15:01.324Z,522.00
2024-05-09T03:16:01.332Z,521.00
2024-05-09T03:17:01.391Z,525.00
2024-05-09T03:18:01.987Z,526.00
2024-05-09T03:19:01.522Z,527.00
2024-05-09T03:20:01.526Z,528.00
2024-05-09T03:21:01.536Z,528.00
2024-05-09T03:22:01.471Z,527.00
2024-05-09T03:23:01.587Z,526.00
2024-05-09T03:24:01.527Z,527.00
2024-05-09T03:25:01.586Z,527.00
2024-05-09T03:26:01.623Z,527.00
2024-05-09T03:27:01.604Z,528.00
2024-05-09T03:28:01.670Z,527.00
2024-05-09T03:29:01.686Z,526.00
2024-05-09T03:30:02.038Z,524.00
2024-05-09T03:31:01.685Z,524.00
2024-05-09T03:32:01.785Z,525.00
2024-05-09T03:33:01.967Z,524.00
2024-05-09T03:34:01.962Z,523.00
2024-05-09T03:35:01.788Z,521.00
2024-05-09T03:36:01.814Z,519.00
2024-05-09T03:37:01.832Z,520.00
2024-05-09T03:38:01.874Z,522.00
2024-05-09T03:39:01.854Z,523.00
2024-05-09T03:40:02.094Z,524.00
2024-05-09T03:41:01.946Z,524.00
2024-05-09T03:42:01.953Z,526.00
2024-05-09T03:43:01.982Z,526.00
2024-05-09T03:44:02.001Z,524.00
2024-05-09T03:45:02.061Z,522.00
2024-05-09T03:46:02.034Z,520.00
2024-05-09T03:47:02.054Z,521.00
2024-05-09T03:48:02.286Z,525.00
2024-05-09T03:49:02.241Z,526.00
2024-05-09T03:50:02.139Z,527.00
2024-05-09T03:51:02.199Z,526.00
2024-05-09T03:52:02.132Z,523.00
2024-05-09T03:53:02.368Z,522.00
2024-05-09T03:54:02.203Z,519.00
2024-05-09T03:55:02.232Z,518.00
2024-05-09T03:56:02.284Z,517.00
2024-05-09T03:57:02.262Z,517.00
2024-05-09T03:58:02.278Z,518.00
2024-05-09T03:59:02.358Z,518.00
2024-05-09T04:00:02.997Z,516.00
2024-05-09T04:01:02.387Z,515.00
2024-05-09T04:02:02.488Z,515.00
2024-05-09T04:03:02.845Z,517.00
2024-05-09T04:04:02.479Z,518.00
2024-05-09T04:05:02.490Z,517.00
2024-05-09T04:06:02.477Z,517.00
2024-05-09T04:07:02.436Z,516.00
2024-05-09T04:08:02.610Z,517.00
2024-05-09T04:09:02.501Z,518.00
2024-05-09T04:10:04.052Z,519.00
2024-05-09T04:11:02.663Z,522.00
2024-05-09T04:12:02.679Z,522.00
2024-05-09T04:13:03.146Z,522.00
2024-05-09T04:14:02.551Z,524.00
2024-05-09T04:15:02.556Z,526.00
2024-05-09T04:16:02.567Z,526.00
2024-05-09T04:17:02.633Z,527.00
2024-05-09T04:18:03.074Z,527.00
2024-05-09T04:19:02.616Z,527.00
2024-05-09T04:20:02.572Z,526.00
2024-05-09T04:21:02.678Z,526.00
2024-05-09T04:22:02.549Z,528.00
2024-05-09T04:23:02.548Z,527.00
2024-05-09T04:24:02.550Z,528.00
2024-05-09T04:25:02.560Z,529.00
2024-05-09T04:26:02.609Z,529.00
2024-05-09T04:27:02.536Z,527.00
2024-05-09T04:28:02.567Z,527.00
2024-05-09T04:29:02.553Z,527.00
2024-05-09T04:30:03.568Z,529.00
2024-05-09T04:31:02.539Z,528.00
2024-05-09T04:32:02.756Z,527.00
2024-05-09T04:33:12.306Z,533.00
2024-05-09T04:34:10.188Z,531.00
2024-05-09T04:35:10.080Z,533.00
2024-05-09T04:36:10.048Z,534.00
2024-05-09T04:37:10.024Z,538.00
2024-05-09T04:38:10.156Z,540.00
2024-05-09T04:39:10.016Z,540.00
2024-05-09T04:40:20.502Z,537.00
2024-05-09T04:41:11.064Z,539.00
2024-05-09T04:42:10.023Z,540.00
2024-05-09T04:43:10.042Z,539.00
2024-05-09T04:44:10.110Z,539.00
2024-05-09T04:45:10.059Z,539.00
2024-05-09T04:46:10.057Z,537.00
2024-05-09T04:47:10.133Z,535.00
2024-05-09T04:48:10.277Z,534.00
2024-05-09T04:49:10.161Z,535.00
2024-05-09T04:52:10.060Z,532.00
2024-05-09T04:53:11.284Z,533.00
2024-05-09T04:54:13.003Z,532.00
2024-05-09T04:55:11.073Z,529.00
2024-05-09T04:57:10.063Z,526.00
2024-05-09T04:58:10.164Z,527.00
2024-05-09T04:59:10.143Z,527.00
2024-05-09T05:00:14.866Z,528.00
2024-05-09T05:01:11.158Z,530.00
2024-05-09T05:02:10.133Z,530.00
2024-05-09T05:03:12.439Z,531.00
2024-05-09T05:04:10.118Z,529.00
2024-05-09T05:05:11.702Z,531.00
2024-05-09T05:06:10.133Z,529.00
2024-05-09T05:07:10.110Z,529.00
2024-05-09T05:08:10.149Z,531.00
2024-05-09T05:09:10.090Z,529.00
2024-05-09T05:11:10.711Z,523.00
2024-05-09T05:12:10.215Z,522.00
2024-05-09T05:13:10.111Z,522.00
2024-05-09T05:14:10.144Z,522.00
2024-05-09T05:15:10.108Z,524.00
2024-05-09T05:16:10.117Z,525.00
2024-05-09T05:17:10.148Z,524.00
2024-05-09T05:18:10.290Z,523.00
2024-05-09T05:19:12.044Z,522.00
2024-05-09T05:20:12.645Z,523.00
2024-05-09T05:21:10.160Z,522.00
2024-05-09T05:22:10.115Z,522.00
2024-05-09T05:23:10.209Z,522.00
2024-05-09T05:24:10.119Z,521.00
2024-05-09T05:25:10.113Z,521.00
2024-05-09T05:26:10.117Z,519.00
2024-05-09T05:27:10.127Z,521.00
2024-05-09T05:28:10.145Z,524.00
2024-05-09T05:29:10.184Z,522.00
2024-05-09T05:30:17.537Z,521.00
2024-05-09T05:31:11.206Z,518.00
2024-05-09T05:32:10.193Z,517.00
2024-05-09T05:33:10.190Z,516.00
2024-05-09T05:34:10.144Z,517.00
2024-05-09T05:35:10.173Z,516.00
2024-05-09T05:36:10.117Z,517.00
2024-05-09T05:37:10.123Z,514.00
2024-05-09T05:38:10.268Z,515.00
2024-05-09T05:39:10.180Z,517.00
2024-05-09T05:41:10.178Z,515.00
2024-05-09T05:42:10.138Z,514.00
2024-05-09T05:43:10.598Z,515.00
2024-05-09T05:44:10.216Z,515.00
2024-05-09T05:45:10.168Z,513.00
2024-05-09T05:46:10.154Z,511.00
2024-05-09T05:47:10.204Z,511.00
2024-05-09T05:48:10.336Z,514.00
2024-05-09T05:49:10.322Z,516.00
2024-05-09T05:50:20.687Z,515.00
2024-05-09T05:51:11.208Z,515.00
2024-05-09T05:52:10.155Z,515.00
2024-05-09T05:53:10.693Z,516.00
2024-05-09T05:54:10.166Z,515.00
2024-05-09T05:55:10.133Z,513.00
2024-05-09T05:56:10.168Z,514.00
2024-05-09T05:57:10.211Z,513.00
2024-05-09T05:58:10.199Z,514.00
2024-05-09T05:59:11.469Z,514.00
2024-05-09T06:00:15.126Z,515.00
2024-05-09T06:01:11.202Z,514.00
2024-05-09T06:02:10.287Z,516.00
2024-05-09T06:03:10.987Z,515.00
2024-05-09T06:04:10.301Z,514.00
2024-05-09T06:05:10.296Z,515.00
2024-05-09T06:06:10.222Z,515.00
2024-05-09T06:07:10.164Z,515.00
2024-05-09T06:08:10.362Z,516.00
2024-05-09T06:09:10.162Z,514.00
2024-05-09T06:10:17.284Z,515.00
2024-05-09T06:11:11.275Z,516.00
2024-05-09T06:12:10.355Z,516.00
2024-05-09T06:13:10.188Z,517.00
2024-05-09T06:14:10.288Z,516.00
2024-05-09T06:15:10.167Z,513.00
2024-05-09T06:16:10.183Z,514.00
2024-05-09T06:17:10.417Z,513.00
2024-05-09T06:18:11.463Z,514.00
2024-05-09T06:19:10.269Z,512.00
2024-05-09T06:20:20.105Z,512.00
2024-05-09T06:21:11.248Z,510.00
2024-05-09T06:22:10.178Z,510.00
2024-05-09T06:23:10.641Z,511.00
2024-05-09T06:24:10.198Z,513.00
2024-05-09T06:25:10.229Z,516.00
2024-05-09T06:26:10.341Z,515.00
2024-05-09T06:27:10.194Z,515.00
2024-05-09T06:28:10.194Z,516.00
2024-05-09T06:29:10.245Z,517.00
2024-05-09T06:30:21.056Z,517.00
2024-05-09T06:31:11.202Z,519.00
2024-05-09T06:32:10.333Z,517.00
2024-05-09T06:33:11.735Z,516.00
2024-05-09T06:34:10.307Z,516.00
2024-05-09T06:35:10.226Z,516.00
2024-05-09T06:36:10.239Z,518.00
2024-05-09T06:37:10.259Z,520.00
2024-05-09T06:38:10.504Z,521.00
2024-05-09T06:39:10.223Z,520.00
2024-05-09T06:40:10.230Z,519.00
2024-05-09T06:41:10.255Z,517.00
2024-05-09T06:42:10.201Z,515.00
2024-05-09T06:43:10.246Z,513.00
2024-05-09T06:44:10.243Z,514.00
2024-05-09T06:45:10.193Z,512.00
2024-05-09T06:46:10.201Z,510.00
2024-05-09T06:47:10.366Z,510.00
2024-05-09T06:48:10.631Z,509.00
2024-05-09T06:49:10.434Z,510.00
2024-05-09T06:50:19.614Z,511.00
2024-05-09T06:51:11.354Z,510.00
2024-05-09T06:52:10.242Z,509.00
2024-05-09T06:53:10.307Z,509.00
2024-05-09T06:54:10.258Z,507.00
2024-05-09T06:55:10.242Z,505.00
2024-05-09T06:56:10.307Z,505.00
2024-05-09T06:57:10.235Z,506.00
2024-05-09T06:58:10.226Z,506.00
2024-05-09T06:59:10.284Z,508.00
2024-05-09T07:00:15.602Z,508.00
2024-05-09T07:01:11.367Z,509.00
2024-05-09T07:02:10.348Z,509.00
2024-05-09T07:03:11.141Z,504.00
2024-05-09T07:04:10.314Z,502.00
2024-05-09T07:05:10.390Z,504.00
2024-05-09T07:06:10.418Z,502.00
2024-05-09T07:07:10.247Z,502.00
2024-05-09T07:08:10.436Z,504.00
2024-05-09T07:09:10.261Z,505.00
2024-05-09T07:10:17.746Z,506.00
2024-05-09T07:11:11.340Z,510.00
2024-05-09T07:12:10.420Z,513.00
2024-05-09T07:13:10.430Z,513.00
2024-05-09T07:14:10.287Z,514.00
2024-05-09T07:15:10.264Z,514.00
2024-05-09T07:16:10.309Z,514.00
2024-05-09T07:17:10.381Z,513.00
2024-05-09T07:18:10.518Z,513.00
2024-05-09T07:19:10.467Z,516.00
2024-05-09T07:20:16.181Z,515.00
2024-05-09T07:21:11.501Z,513.00
2024-05-09T07:22:10.291Z,511.00
2024-05-09T07:23:10.530Z,512.00
2024-05-09T07:24:10.297Z,511.00
2024-05-09T07:25:10.284Z,509.00
2024-05-09T07:26:10.514Z,508.00
2024-05-09T07:27:10.276Z,505.00
2024-05-09T07:28:10.289Z,503.00
2024-05-09T07:29:10.373Z,501.00
2024-05-09T07:30:13.536Z,502.00
2024-05-09T07:31:11.357Z,504.00
2024-05-09T07:32:10.354Z,505.00
2024-05-09T07:33:10.508Z,505.00
2024-05-09T07:34:10.429Z,508.00
2024-05-09T07:35:10.339Z,508.00
2024-05-09T07:36:10.332Z,509.00
2024-05-09T07:37:10.294Z,511.00
2024-05-09T07:38:10.359Z,513.00
2024-05-09T07:39:10.296Z,513.00
2024-05-09T07:40:14.733Z,516.00
2024-05-09T07:41:11.392Z,516.00
2024-05-09T07:42:10.289Z,517.00
2024-05-09T07:43:10.296Z,517.00
2024-05-09T07:44:10.303Z,516.00
2024-05-09T07:45:24.205Z,516.00
2024-05-09T07:47:13.959Z,515.00
2024-05-09T07:48:27.110Z,515.00
2024-05-09T07:49:44.900Z,516.00
2024-05-09T07:50:53.528Z,515.00
2024-05-09T07:53:29.243Z,511.00
2024-05-09T07:53:36.989Z,510.00
2024-05-09T07:54:11.620Z,509.00
2024-05-09T07:55:10.449Z,510.00
2024-05-09T07:56:11.702Z,510.00
2024-05-09T07:57:10.415Z,511.00
2024-05-09T07:58:10.379Z,512.00
2024-05-09T07:59:10.358Z,512.00
2024-05-09T08:00:14.253Z,513.00
2024-05-09T08:01:10.492Z,514.00
2024-05-09T08:02:10.516Z,514.00
2024-05-09T08:03:10.588Z,512.00
2024-05-09T08:04:10.459Z,510.00
2024-05-09T08:05:10.466Z,507.00
2024-05-09T08:06:10.350Z,508.00
2024-05-09T08:07:10.484Z,507.00
2024-05-09T08:08:10.349Z,508.00
2024-05-09T08:09:13.914Z,507.00
2024-05-09T08:10:15.258Z,509.00
2024-05-09T08:11:11.423Z,510.00
2024-05-09T08:12:10.373Z,511.00
2024-05-09T08:13:10.399Z,513.00
2024-05-09T08:14:10.363Z,515.00
2024-05-09T08:15:10.350Z,518.00
2024-05-09T08:16:10.554Z,517.00
2024-05-09T08:17:10.396Z,517.00
2024-05-09T08:18:10.500Z,517.00
2024-05-09T08:19:10.500Z,519.00
2024-05-09T08:20:11.384Z,519.00
2024-05-09T08:21:10.415Z,518.00
2024-05-09T08:22:10.485Z,518.00
2024-05-09T08:23:10.386Z,520.00
2024-05-09T08:24:10.395Z,519.00
2024-05-09T08:25:11.885Z,520.00
2024-05-09T08:26:10.380Z,520.00
2024-05-09T08:27:10.382Z,520.00
2024-05-09T08:28:10.543Z,519.00
2024-05-09T08:29:10.402Z,518.00
2024-05-09T08:30:18.577Z,517.00
2024-05-09T08:31:11.618Z,519.00
2024-05-09T08:32:10.428Z,518.00
2024-05-09T08:33:10.555Z,519.00
2024-05-09T08:34:10.480Z,521.00
2024-05-09T08:35:10.394Z,521.00
2024-05-09T08:36:10.398Z,524.00
2024-05-09T08:37:15.707Z,523.00
2024-05-09T08:38:11.517Z,522.00
2024-05-09T08:39:10.409Z,521.00
2024-05-09T08:40:16.683Z,521.00
2024-05-09T08:41:11.390Z,519.00
2024-05-09T08:42:10.476Z,519.00
2024-05-09T08:43:12.136Z,518.00
2024-05-09T08:44:10.546Z,520.00
2024-05-09T08:45:10.572Z,517.00
2024-05-09T08:46:10.636Z,517.00
2024-05-09T08:47:10.651Z,515.00
2024-05-09T08:48:10.736Z,515.00
2024-05-09T08:49:10.730Z,515.00
2024-05-09T08:50:20.228Z,514.00
2024-05-09T08:51:11.674Z,514.00
2024-05-09T08:52:10.780Z,515.00
2024-05-09T08:53:10.775Z,514.00
2024-05-09T08:54:10.695Z,517.00
2024-05-09T08:55:10.691Z,515.00
2024-05-09T08:56:10.653Z,515.00
2024-05-09T08:57:10.690Z,514.00
2024-05-09T08:58:10.905Z,514.00
2024-05-09T08:59:10.692Z,512.00
2024-05-09T09:00:15.026Z,510.00
2024-05-09T09:01:11.879Z,509.00
2024-05-09T09:02:10.912Z,509.00
2024-05-09T09:03:10.838Z,509.00
2024-05-09T09:04:10.833Z,509.00
2024-05-09T09:05:10.878Z,508.00
2024-05-09T09:06:10.834Z,510.00
2024-05-09T09:07:10.900Z,510.00
2024-05-09T09:08:10.780Z,509.00
2024-05-09T09:09:10.857Z,508.00
2024-05-09T09:10:15.191Z,506.00
2024-05-09T09:11:11.941Z,506.00
2024-05-09T09:12:10.916Z,506.00
2024-05-09T09:13:11.151Z,507.00
2024-05-09T09:14:10.932Z,508.00
2024-05-09T09:15:10.876Z,506.00
2024-05-09T09:16:10.942Z,504.00
2024-05-09T09:17:10.919Z,505.00
2024-05-09T09:18:12.327Z,505.00
2024-05-09T09:19:11.255Z,505.00
2024-05-09T09:20:14.457Z,504.00
2024-05-09T09:21:12.047Z,505.00
2024-05-09T09:22:11.201Z,502.00
2024-05-09T09:23:11.049Z,502.00
2024-05-09T09:24:11.004Z,502.00
2024-05-09T09:25:11.091Z,502.00
2024-05-09T09:26:11.076Z,504.00
2024-05-09T09:27:11.004Z,507.00
2024-05-09T09:28:11.255Z,510.00
2024-05-09T09:29:11.044Z,510.00
2024-05-09T09:30:22.456Z,509.00
2024-05-09T09:31:12.216Z,511.00
2024-05-09T09:32:11.070Z,509.00
2024-05-09T09:33:11.434Z,508.00
2024-05-09T09:34:11.399Z,507.00
2024-05-09T09:35:11.132Z,509.00
2024-05-09T09:36:11.741Z,509.00
2024-05-09T09:37:11.296Z,508.00
2024-05-09T09:38:11.291Z,505.00
2024-05-09T09:39:11.099Z,504.00
2024-05-09T09:41:11.178Z,508.00
2024-05-09T09:42:11.197Z,509.00
2024-05-09T09:43:11.376Z,510.00
2024-05-09T09:44:11.235Z,509.00
2024-05-09T09:45:11.299Z,507.00
2024-05-09T09:46:12.772Z,507.00
2024-05-09T09:47:11.402Z,506.00
2024-05-09T09:48:11.662Z,507.00
2024-05-09T09:49:11.702Z,509.00
2024-05-09T09:50:14.620Z,509.00
2024-05-09T09:51:12.516Z,510.00
2024-05-09T09:52:11.587Z,512.00
2024-05-09T09:53:11.498Z,512.00
2024-05-09T09:54:11.492Z,511.00
2024-05-09T09:55:11.575Z,509.00
2024-05-09T09:56:11.525Z,510.00
2024-05-09T09:57:11.540Z,510.00
2024-05-09T09:58:14.069Z,508.00
2024-05-09T09:59:11.514Z,509.00
2024-05-09T10:00:12.049Z,507.00
2024-05-09T10:01:11.630Z,506.00
2024-05-09T10:02:11.671Z,508.00
2024-05-09T10:03:11.601Z,507.00
2024-05-09T10:04:11.763Z,508.00
2024-05-09T10:05:11.637Z,508.00
2024-05-09T10:06:11.551Z,510.00
2024-05-09T10:07:11.594Z,508.00
2024-05-09T10:08:11.493Z,509.00
2024-05-09T10:09:11.572Z,510.00
2024-05-09T10:10:16.227Z,510.00
2024-05-09T10:11:11.593Z,508.00
2024-05-09T10:12:11.664Z,508.00
2024-05-09T10:13:11.557Z,507.00
2024-05-09T10:14:11.550Z,505.00
2024-05-09T10:15:11.556Z,505.00
2024-05-09T10:16:12.047Z,504.00
2024-05-09T10:17:11.587Z,505.00
2024-05-09T10:18:11.708Z,504.00
2024-05-09T10:19:11.638Z,506.00
2024-05-09T10:20:18.480Z,505.00
2024-05-09T10:21:12.582Z,507.00
2024-05-09T10:22:11.641Z,505.00
2024-05-09T10:23:11.570Z,506.00
2024-05-09T10:24:11.580Z,509.00
2024-05-09T10:25:11.588Z,508.00
2024-05-09T10:26:11.585Z,507.00
2024-05-09T10:27:11.547Z,508.00
2024-05-09T10:28:11.634Z,508.00
2024-05-09T10:29:11.559Z,508.00
2024-05-09T10:30:17.723Z,509.00
2024-05-09T10:31:12.586Z,513.00
2024-05-09T10:32:11.618Z,514.00
2024-05-09T10:33:11.980Z,514.00
2024-05-09T10:34:11.763Z,513.00
2024-05-09T10:35:11.633Z,514.00
2024-05-09T10:36:11.583Z,515.00
2024-05-09T10:37:11.612Z,516.00
2024-05-09T10:38:11.580Z,519.00
2024-05-09T10:39:11.580Z,520.00
2024-05-09T10:40:14.385Z,519.00
2024-05-09T10:41:12.588Z,519.00
2024-05-09T10:42:11.600Z,519.00
2024-05-09T10:43:11.643Z,518.00
2024-05-09T10:44:11.597Z,517.00
2024-05-09T10:45:11.596Z,517.00
2024-05-09T10:46:11.894Z,518.00
2024-05-09T10:47:11.618Z,518.00
2024-05-09T10:48:11.622Z,516.00
2024-05-09T10:49:11.732Z,519.00
2024-05-09T10:50:18.566Z,519.00
2024-05-09T10:51:12.592Z,519.00
2024-05-09T10:52:11.656Z,518.00
2024-05-09T10:53:11.600Z,516.00
2024-05-09T10:54:11.743Z,515.00
2024-05-09T10:55:11.668Z,514.00
2024-05-09T10:56:11.615Z,514.00
2024-05-09T10:57:11.590Z,512.00
2024-05-09T10:58:11.792Z,512.00
2024-05-09T10:59:11.621Z,514.00
2024-05-09T11:00:18.986Z,514.00
2024-05-09T11:01:12.770Z,515.00
2024-05-09T11:02:11.788Z,514.00
2024-05-09T11:03:11.645Z,516.00
2024-05-09T11:04:11.842Z,514.00
2024-05-09T11:05:11.680Z,512.00
2024-05-09T11:06:11.628Z,509.00
2024-05-09T11:07:11.650Z,510.00
2024-05-09T11:08:11.610Z,511.00
2024-05-09T11:09:11.612Z,510.00
2024-05-09T11:10:12.661Z,510.00
2024-05-09T11:11:11.683Z,508.00
2024-05-09T11:12:11.646Z,509.00
2024-05-09T11:13:11.620Z,508.00
2024-05-09T11:14:11.675Z,508.00
2024-05-09T11:15:11.610Z,505.00
2024-05-09T11:16:11.633Z,506.00
2024-05-09T11:17:11.673Z,507.00
2024-05-09T11:18:11.698Z,507.00
2024-05-09T11:19:11.798Z,508.00
2024-05-09T11:20:17.099Z,509.00
2024-05-09T11:21:13.205Z,509.00
2024-05-09T11:22:11.669Z,506.00
2024-05-09T11:23:11.639Z,505.00
2024-05-09T11:24:11.916Z,502.00
2024-05-09T11:25:11.696Z,502.00
2024-05-09T11:26:11.631Z,500.00
2024-05-09T11:27:11.633Z,498.00
2024-05-09T11:28:11.836Z,501.00
2024-05-09T11:29:11.645Z,503.00
2024-05-09T11:30:17.410Z,504.00
2024-05-09T11:31:12.742Z,506.00
2024-05-09T11:32:11.707Z,508.00
2024-05-09T11:33:11.658Z,508.00
2024-05-09T11:34:11.706Z,508.00
2024-05-09T11:35:11.650Z,507.00
2024-05-09T11:36:11.655Z,507.00
2024-05-09T11:37:11.718Z,508.00
2024-05-09T11:38:11.664Z,509.00
2024-05-09T11:39:11.679Z,509.00
2024-05-09T11:40:17.076Z,511.00
2024-05-09T11:41:12.681Z,510.00
2024-05-09T11:42:11.679Z,509.00
2024-05-09T11:43:11.723Z,509.00
2024-05-09T11:44:11.675Z,509.00
2024-05-09T11:45:11.682Z,511.00
2024-05-09T11:46:11.770Z,512.00
2024-05-09T11:47:11.709Z,513.00
2024-05-09T11:48:11.811Z,512.00
2024-05-09T11:49:11.838Z,514.00
2024-05-09T11:50:19.112Z,515.00
2024-05-09T11:51:12.687Z,515.00
2024-05-09T11:52:11.751Z,514.00
2024-05-09T11:53:11.675Z,515.00
2024-05-09T11:54:11.675Z,515.00
2024-05-09T11:55:11.832Z,514.00
2024-05-09T11:56:11.694Z,512.00
2024-05-09T11:57:11.719Z,511.00
2024-05-09T11:58:11.934Z,509.00
2024-05-09T11:59:11.670Z,508.00
2024-05-09T12:00:14.930Z,510.00
2024-05-09T12:01:12.797Z,514.00
2024-05-09T12:02:11.960Z,515.00
2024-05-09T12:03:11.772Z,514.00
2024-05-09T12:04:12.048Z,514.00
2024-05-09T12:05:11.801Z,513.00
2024-05-09T12:06:11.722Z,513.00
2024-05-09T12:07:13.090Z,515.00
2024-05-09T12:08:11.738Z,514.00
2024-05-09T12:09:11.738Z,516.00
2024-05-09T12:10:16.654Z,515.00
2024-05-09T12:11:12.838Z,516.00
2024-05-09T12:12:11.712Z,513.00
2024-05-09T12:13:11.739Z,510.00
2024-05-09T12:14:11.708Z,507.00
2024-05-09T12:15:11.720Z,507.00
2024-05-09T12:16:11.870Z,506.00
2024-05-09T12:17:11.767Z,505.00
2024-05-09T12:18:11.778Z,504.00
2024-05-09T12:19:11.829Z,502.00
2024-05-09T12:20:20.930Z,501.00
2024-05-09T12:21:12.740Z,502.00
2024-05-09T12:22:11.810Z,502.00
2024-05-09T12:23:11.724Z,502.00
2024-05-09T12:24:13.756Z,502.00
2024-05-09T12:25:11.827Z,502.00
2024-05-09T12:26:11.719Z,501.00
2024-05-09T12:27:11.734Z,503.00
2024-05-09T12:28:11.776Z,504.00
2024-05-09T12:29:11.734Z,506.00
2024-05-09T12:30:17.242Z,507.00
2024-05-09T12:31:12.828Z,507.00
2024-05-09T12:32:11.849Z,505.00
2024-05-09T12:33:12.595Z,503.00
2024-05-09T12:34:11.820Z,502.00
2024-05-09T12:35:11.762Z,501.00
2024-05-09T12:36:11.767Z,501.00
2024-05-09T12:37:11.923Z,500.00